sensor_id;sensor_type;location;lat;lon;timestamp;pressure;altitude;pressure_sealevel;temperature;humidity
79118;BME280;68523;51.336;-0.846;2023-04-06T00:00:34;100586.90;;;8.1;100.0
79118;BME280;68523;51.336;-0.846;2023-04-06T00:05:37;100584.06;;;8.2;100.0
79118;BME280;68523;51.336;-0.846;2023-04-06T00:11:01;100575.28;;;8.1;100.0
79118;BME280;68523;51.336;-0.846;2023-04-06T00:16:04;100572.52;;;8.3;100.0
79118;BME280;68523;51.336;-0.846;2023-04-06T00:21:35;100565.29;;;8.4;100.0
79118;BME280;68523;51.336;-0.846;2023-04-06T00:26:37;100560.18;;;8.4;100.0
79118;BME280;68523;51.336;-0.846;2023-04-06T00:32:02;100552.46;;;8.3;100.0
79118;BME280;68523;51.336;-0.846;2023-04-06T00:37:04;100544.13;;;8.3;100.0
79118;BME280;68523;51.336;-0.846;2023-04-06T00:42:34;100541.15;;;8.3;100.0
79118;BME280;68523;51.336;-0.846;2023-04-06T00:48:05;100535.24;;;8.2;100.0
79118;BME280;68523;51.336;-0.846;2023-04-06T00:53:34;100525.82;;;8.4;100.0
79118;BME280;68523;51.336;-0.846;2023-04-06T00:58:37;100519.07;;;8.4;100.0
79118;BME280;68523;51.336;-0.846;2023-04-06T01:04:02;100509.37;;;8.4;100.0
79118;BME280;68523;51.336;-0.846;2023-04-06T01:09:05;100503.81;;;8.4;100.0
79118;BME280;68523;51.336;-0.846;2023-04-06T01:14:35;100496.42;;;8.6;100.0
79118;BME280;68523;51.336;-0.846;2023-04-06T01:19:38;100490.54;;;8.4;100.0
79118;BME280;68523;51.336;-0.846;2023-04-06T01:25:02;100485.82;;;8.2;100.0
79118;BME280;68523;51.336;-0.846;2023-04-06T01:30:06;100479.78;;;8.2;100.0
79118;BME280;68523;51.336;-0.846;2023-04-06T01:35:36;100476.05;;;8.3;100.0
79118;BME280;68523;51.336;-0.846;2023-04-06T01:41:05;100469.90;;;8.3;100.0
79118;BME280;68523;51.336;-0.846;2023-04-06T01:46:35;100459.98;;;8.3;100.0
79118;BME280;68523;51.336;-0.846;2023-04-06T01:52:05;100454.90;;;8.3;100.0
79118;BME280;68523;51.336;-0.846;2023-04-06T01:57:34;100445.42;;;8.4;100.0
79118;BME280;68523;51.336;-0.846;2023-04-06T02:02:37;100438.93;;;8.5;100.0
79118;BME280;68523;51.336;-0.846;2023-04-06T02:08:02;100435.18;;;8.4;100.0
79118;BME280;68523;51.336;-0.846;2023-04-06T02:13:04;100429.25;;;8.4;100.0
79118;BME280;68523;51.336;-0.846;2023-04-06T02:18:34;100416.65;;;8.5;100.0
79118;BME280;68523;51.336;-0.846;2023-04-06T02:23:37;100412.92;;;8.4;100.0
79118;BME280;68523;51.336;-0.846;2023-04-06T02:29:01;100406.73;;;8.4;100.0
79118;BME280;68523;51.336;-0.846;2023-04-06T02:34:04;100399.23;;;8.7;100.0
79118;BME280;68523;51.336;-0.846;2023-04-06T02:39:34;100402.37;;;8.6;100.0
79118;BME280;68523;51.336;-0.846;2023-04-06T02:44:37;100397.51;;;8.5;100.0
79118;BME280;68523;51.336;-0.846;2023-04-06T02:50:06;100394.53;;;8.5;100.0
79118;BME280;68523;51.336;-0.846;2023-04-06T02:55:36;100381.91;;;8.5;100.0
79118;BME280;68523;51.336;-0.846;2023-04-06T03:01:05;100375.70;;;8.6;100.0
79118;BME280;68523;51.336;-0.846;2023-04-06T03:06:35;100375.04;;;8.8;100.0
79118;BME280;68523;51.336;-0.846;2023-04-06T03:11:38;100369.47;;;8.9;100.0
79118;BME280;68523;51.336;-0.846;2023-04-06T03:17:02;100368.28;;;8.6;100.0
79118;BME280;68523;51.336;-0.846;2023-04-06T03:22:05;100370.78;;;8.7;100.0
79118;BME280;68523;51.336;-0.846;2023-04-06T03:27:35;100360.09;;;8.7;100.0
79118;BME280;68523;51.336;-0.846;2023-04-06T03:32:37;100357.18;;;8.9;100.0
79118;BME280;68523;51.336;-0.846;2023-04-06T03:38:01;100349.79;;;9.2;100.0
79118;BME280;68523;51.336;-0.846;2023-04-06T03:43:04;100350.61;;;9.2;100.0
79118;BME280;68523;51.336;-0.846;2023-04-06T03:48:34;100346.02;;;9.1;100.0
79118;BME280;68523;51.336;-0.846;2023-04-06T03:53:37;100335.89;;;9.0;100.0
79118;BME280;68523;51.336;-0.846;2023-04-06T03:59:01;100329.32;;;8.9;100.0
79118;BME280;68523;51.336;-0.846;2023-04-06T04:04:05;100328.50;;;9.0;100.0
79118;BME280;68523;51.336;-0.846;2023-04-06T04:09:35;100325.33;;;9.1;100.0
79118;BME280;68523;51.336;-0.846;2023-04-06T04:14:38;100325.59;;;9.0;100.0
79118;BME280;68523;51.336;-0.846;2023-04-06T04:20:02;100323.46;;;9.0;100.0
79118;BME280;68523;51.336;-0.846;2023-04-06T04:25:05;100320.51;;;8.8;100.0
79118;BME280;68523;51.336;-0.846;2023-04-06T04:30:35;100318.64;;;8.8;100.0
79118;BME280;68523;51.336;-0.846;2023-04-06T04:36:05;100313.39;;;8.8;100.0
79118;BME280;68523;51.336;-0.846;2023-04-06T04:41:34;100308.59;;;8.8;100.0
79118;BME280;68523;51.336;-0.846;2023-04-06T04:46:37;100307.94;;;8.9;100.0
79118;BME280;68523;51.336;-0.846;2023-04-06T04:52:06;100298.35;;;9.1;100.0
79118;BME280;68523;51.336;-0.846;2023-04-06T04:57:36;100296.51;;;9.0;100.0
79118;BME280;68523;51.336;-0.846;2023-04-06T05:03:05;100300.33;;;8.9;100.0
79118;BME280;68523;51.336;-0.846;2023-04-06T05:08:36;100288.52;;;9.0;100.0
79118;BME280;68523;51.336;-0.846;2023-04-06T05:14:05;100292.88;;;9.1;100.0
79118;BME280;68523;51.336;-0.846;2023-04-06T05:19:35;100297.60;;;9.1;100.0
79118;BME280;68523;51.336;-0.846;2023-04-06T05:25:05;100289.02;;;9.3;100.0
79118;BME280;68523;51.336;-0.846;2023-04-06T05:30:35;100296.79;;;9.2;100.0
79118;BME280;68523;51.336;-0.846;2023-04-06T05:36:05;100292.00;;;9.2;100.0
79118;BME280;68523;51.336;-0.846;2023-04-06T05:41:34;100295.73;;;9.2;100.0
79118;BME280;68523;51.336;-0.846;2023-04-06T05:46:37;100295.76;;;9.1;100.0
79118;BME280;68523;51.336;-0.846;2023-04-06T05:52:01;100290.82;;;9.1;100.0
79118;BME280;68523;51.336;-0.846;2023-04-06T05:57:04;100306.22;;;9.0;100.0
79118;BME280;68523;51.336;-0.846;2023-04-06T06:02:34;100311.87;;;8.9;100.0
79118;BME280;68523;51.336;-0.846;2023-04-06T06:07:37;100298.70;;;9.0;100.0
79118;BME280;68523;51.336;-0.846;2023-04-06T06:13:01;100301.14;;;9.0;100.0
79118;BME280;68523;51.336;-0.846;2023-04-06T06:18:04;100287.55;;;9.1;100.0
79118;BME280;68523;51.336;-0.846;2023-04-06T06:23:34;100292.51;;;9.0;100.0
79118;BME280;68523;51.336;-0.846;2023-04-06T06:28:37;100297.68;;;8.9;100.0
79118;BME280;68523;51.336;-0.846;2023-04-06T06:34:01;100301.47;;;8.8;100.0
79118;BME280;68523;51.336;-0.846;2023-04-06T06:39:04;100302.46;;;8.8;100.0
79118;BME280;68523;51.336;-0.846;2023-04-06T06:44:34;100309.89;;;8.9;100.0
79118;BME280;68523;51.336;-0.846;2023-04-06T06:49:36;100310.63;;;9.0;100.0
79118;BME280;68523;51.336;-0.846;2023-04-06T06:55:07;100318.10;;;8.8;100.0
79118;BME280;68523;51.336;-0.846;2023-04-06T07:00:36;100322.99;;;8.9;100.0
79118;BME280;68523;51.336;-0.846;2023-04-06T07:06:06;100325.88;;;8.8;100.0
79118;BME280;68523;51.336;-0.846;2023-04-06T07:11:36;100330.96;;;8.8;100.0
79118;BME280;68523;51.336;-0.846;2023-04-06T07:17:05;100335.17;;;8.8;100.0
79118;BME280;68523;51.336;-0.846;2023-04-06T07:22:35;100332.00;;;8.8;100.0
79118;BME280;68523;51.336;-0.846;2023-04-06T07:27:38;100335.27;;;8.9;100.0
79118;BME280;68523;51.336;-0.846;2023-04-06T07:33:02;100336.92;;;8.7;100.0
79118;BME280;68523;51.336;-0.846;2023-04-06T07:38:05;100339.00;;;8.6;100.0
79118;BME280;68523;51.336;-0.846;2023-04-06T07:43:35;100343.69;;;8.7;100.0
79118;BME280;68523;51.336;-0.846;2023-04-06T07:48:38;100343.36;;;8.8;100.0
79118;BME280;68523;51.336;-0.846;2023-04-06T07:54:02;100342.64;;;8.9;100.0
79118;BME280;68523;51.336;-0.846;2023-04-06T07:59:05;100337.96;;;8.9;100.0
79118;BME280;68523;51.336;-0.846;2023-04-06T08:04:35;100342.43;;;9.2;100.0
79118;BME280;68523;51.336;-0.846;2023-04-06T08:10:05;100336.30;;;9.0;100.0
79118;BME280;68523;51.336;-0.846;2023-04-06T08:15:35;100341.69;;;9.2;100.0
79118;BME280;68523;51.336;-0.846;2023-04-06T08:20:38;100341.84;;;9.2;100.0
79118;BME280;68523;51.336;-0.846;2023-04-06T08:26:02;100336.51;;;9.3;100.0
79118;BME280;68523;51.336;-0.846;2023-04-06T08:31:05;100335.23;;;9.4;100.0
79118;BME280;68523;51.336;-0.846;2023-04-06T08:36:35;100338.43;;;9.5;100.0
79118;BME280;68523;51.336;-0.846;2023-04-06T08:42:09;100348.00;;;9.4;100.0
79118;BME280;68523;51.336;-0.846;2023-04-06T08:47:35;100359.33;;;9.4;100.0
79118;BME280;68523;51.336;-0.846;2023-04-06T08:53:06;100365.91;;;9.6;100.0
79118;BME280;68523;51.336;-0.846;2023-04-06T08:58:38;100361.76;;;9.9;100.0
79118;BME280;68523;51.336;-0.846;2023-04-06T09:03:38;100368.46;;;10.1;100.0
79118;BME280;68523;51.336;-0.846;2023-04-06T09:09:03;100361.36;;;10.3;100.0
79118;BME280;68523;51.336;-0.846;2023-04-06T09:14:06;100366.19;;;10.4;99.3
79118;BME280;68523;51.336;-0.846;2023-04-06T09:19:45;100366.86;;;10.6;99.4
79118;BME280;68523;51.336;-0.846;2023-04-06T09:24:43;100372.43;;;10.5;98.7
79118;BME280;68523;51.336;-0.846;2023-04-06T09:30:05;100378.30;;;10.6;97.5
79118;BME280;68523;51.336;-0.846;2023-04-06T09:35:07;100380.46;;;10.6;96.7
79118;BME280;68523;51.336;-0.846;2023-04-06T09:40:06;100376.91;;;10.7;95.8
79118;BME280;68523;51.336;-0.846;2023-04-06T09:45:36;100376.82;;;11.1;94.3
79118;BME280;68523;51.336;-0.846;2023-04-06T09:51:07;100375.50;;;11.6;91.2
79118;BME280;68523;51.336;-0.846;2023-04-06T09:56:39;100383.29;;;11.8;91.1
79118;BME280;68523;51.336;-0.846;2023-04-06T10:01:36;100381.25;;;11.7;89.9
79118;BME280;68523;51.336;-0.846;2023-04-06T10:07:07;100372.09;;;12.2;88.0
79118;BME280;68523;51.336;-0.846;2023-04-06T10:12:38;100381.55;;;11.9;87.1
79118;BME280;68523;51.336;-0.846;2023-04-06T10:18:03;100387.75;;;11.4;87.3
79118;BME280;68523;51.336;-0.846;2023-04-06T10:23:36;100393.11;;;11.6;84.5
79118;BME280;68523;51.336;-0.846;2023-04-06T10:28:35;100398.66;;;11.9;84.7
79118;BME280;68523;51.336;-0.846;2023-04-06T10:34:05;100390.29;;;11.8;80.6
79118;BME280;68523;51.336;-0.846;2023-04-06T10:39:35;100386.14;;;12.8;78.2
79118;BME280;68523;51.336;-0.846;2023-04-06T10:44:42;100389.76;;;12.5;77.1
79118;BME280;68523;51.336;-0.846;2023-04-06T10:50:02;100401.23;;;12.2;77.8
79118;BME280;68523;51.336;-0.846;2023-04-06T10:55:05;100399.80;;;12.0;77.4
79118;BME280;68523;51.336;-0.846;2023-04-06T11:00:36;100411.78;;;12.0;77.9
79118;BME280;68523;51.336;-0.846;2023-04-06T11:05:36;100410.53;;;12.3;75.8
79118;BME280;68523;51.336;-0.846;2023-04-06T11:11:06;100409.23;;;12.9;74.0
79118;BME280;68523;51.336;-0.846;2023-04-06T11:16:37;100409.97;;;13.4;70.8
79118;BME280;68523;51.336;-0.846;2023-04-06T11:22:07;100415.22;;;13.1;70.5
79118;BME280;68523;51.336;-0.846;2023-04-06T11:27:05;100417.98;;;12.4;74.1
79118;BME280;68523;51.336;-0.846;2023-04-06T11:32:40;100418.47;;;12.2;74.3
79118;BME280;68523;51.336;-0.846;2023-04-06T11:37:38;100413.48;;;11.9;74.3
79118;BME280;68523;51.336;-0.846;2023-04-06T11:43:04;100416.70;;;12.0;74.5
79118;BME280;68523;51.336;-0.846;2023-04-06T11:48:43;100430.66;;;11.8;77.1
79118;BME280;68523;51.336;-0.846;2023-04-06T11:53:44;100434.45;;;11.1;85.2
79118;BME280;68523;51.336;-0.846;2023-04-06T11:58:36;100445.16;;;10.5;88.6
79118;BME280;68523;51.336;-0.846;2023-04-06T12:04:05;100434.72;;;10.5;89.4
79118;BME280;68523;51.336;-0.846;2023-04-06T12:09:35;100435.06;;;10.7;90.3
79118;BME280;68523;51.336;-0.846;2023-04-06T12:15:06;100439.36;;;11.1;91.2
79118;BME280;68523;51.336;-0.846;2023-04-06T12:20:36;100437.32;;;11.7;87.9
79118;BME280;68523;51.336;-0.846;2023-04-06T12:26:05;100437.93;;;11.7;88.6
79118;BME280;68523;51.336;-0.846;2023-04-06T12:31:36;100444.58;;;11.7;85.7
79118;BME280;68523;51.336;-0.846;2023-04-06T12:37:06;100454.84;;;11.2;76.7
79118;BME280;68523;51.336;-0.846;2023-04-06T12:42:36;100467.26;;;11.1;77.5
79118;BME280;68523;51.336;-0.846;2023-04-06T12:48:05;100479.78;;;10.5;79.6
79118;BME280;68523;51.336;-0.846;2023-04-06T12:53:36;100464.79;;;10.2;83.5
79118;BME280;68523;51.336;-0.846;2023-04-06T12:59:05;100463.30;;;10.5;85.4
79118;BME280;68523;51.336;-0.846;2023-04-06T13:04:35;100457.23;;;10.7;85.1
79118;BME280;68523;51.336;-0.846;2023-04-06T13:09:38;100455.63;;;10.9;83.9
79118;BME280;68523;51.336;-0.846;2023-04-06T13:15:03;100460.65;;;10.9;82.6
79118;BME280;68523;51.336;-0.846;2023-04-06T13:20:07;100468.25;;;10.3;84.1
79118;BME280;68523;51.336;-0.846;2023-04-06T13:25:37;100470.08;;;9.9;83.1
79118;BME280;68523;51.336;-0.846;2023-04-06T13:31:02;100481.76;;;9.5;87.2
79118;BME280;68523;51.336;-0.846;2023-04-06T13:36:06;100501.53;;;9.5;88.7
79118;BME280;68523;51.336;-0.846;2023-04-06T13:41:36;100507.73;;;9.4;88.9
79118;BME280;68523;51.336;-0.846;2023-04-06T13:47:06;100515.69;;;9.6;90.1
79118;BME280;68523;51.336;-0.846;2023-04-06T13:52:36;100509.40;;;10.0;88.7
79118;BME280;68523;51.336;-0.846;2023-04-06T13:58:05;100515.94;;;10.3;89.3
79118;BME280;68523;51.336;-0.846;2023-04-06T14:03:35;100508.42;;;10.3;86.8
79118;BME280;68523;51.336;-0.846;2023-04-06T14:08:38;100498.36;;;11.4;83.5
79118;BME280;68523;51.336;-0.846;2023-04-06T14:14:02;100501.14;;;12.3;81.4
79118;BME280;68523;51.336;-0.846;2023-04-06T14:19:05;100497.74;;;11.5;80.5
79118;BME280;68523;51.336;-0.846;2023-04-06T14:24:06;100501.31;;;11.6;77.4
79118;BME280;68523;51.336;-0.846;2023-04-06T14:29:35;100502.48;;;11.3;80.5
79118;BME280;68523;51.336;-0.846;2023-04-06T14:35:05;100500.30;;;11.2;82.8
79118;BME280;68523;51.336;-0.846;2023-04-06T14:40:35;100501.07;;;10.7;81.8
79118;BME280;68523;51.336;-0.846;2023-04-06T14:46:05;100505.96;;;10.7;82.1
79118;BME280;68523;51.336;-0.846;2023-04-06T14:51:34;100508.72;;;10.5;83.3
79118;BME280;68523;51.336;-0.846;2023-04-06T14:56:38;100507.05;;;10.7;82.7
79118;BME280;68523;51.336;-0.846;2023-04-06T15:02:03;100515.52;;;11.9;77.8
79118;BME280;68523;51.336;-0.846;2023-04-06T15:07:33;100508.14;;;12.0;74.9
79118;BME280;68523;51.336;-0.846;2023-04-06T15:12:36;100512.14;;;11.2;75.6
79118;BME280;68523;51.336;-0.846;2023-04-06T15:18:05;100516.80;;;11.1;75.5
79118;BME280;68523;51.336;-0.846;2023-04-06T15:23:35;100511.75;;;11.4;75.4
79118;BME280;68523;51.336;-0.846;2023-04-06T15:29:05;100512.15;;;11.5;74.9
79118;BME280;68523;51.336;-0.846;2023-04-06T15:34:34;100505.61;;;12.0;71.5
79118;BME280;68523;51.336;-0.846;2023-04-06T15:39:37;100513.61;;;12.3;70.2
79118;BME280;68523;51.336;-0.846;2023-04-06T15:45:01;100516.29;;;12.4;67.8
79118;BME280;68523;51.336;-0.846;2023-04-06T15:50:05;100519.16;;;12.9;67.4
79118;BME280;68523;51.336;-0.846;2023-04-06T15:55:35;100518.17;;;12.0;67.6
79118;BME280;68523;51.336;-0.846;2023-04-06T16:01:12;100519.61;;;12.2;67.5
79118;BME280;68523;51.336;-0.846;2023-04-06T16:06:37;100531.51;;;12.6;67.0
79118;BME280;68523;51.336;-0.846;2023-04-06T16:12:01;100587.96;;;10.8;69.9
79118;BME280;68523;51.336;-0.846;2023-04-06T16:17:04;100603.62;;;10.0;72.8
79118;BME280;68523;51.336;-0.846;2023-04-06T16:22:33;100610.08;;;9.6;75.6
79118;BME280;68523;51.336;-0.846;2023-04-06T16:27:37;100614.31;;;9.5;78.2
79118;BME280;68523;51.336;-0.846;2023-04-06T16:33:06;100614.25;;;9.4;81.2
79118;BME280;68523;51.336;-0.846;2023-04-06T16:38:36;100611.42;;;9.5;80.2
79118;BME280;68523;51.336;-0.846;2023-04-06T16:44:05;100628.84;;;9.2;81.8
79118;BME280;68523;51.336;-0.846;2023-04-06T16:49:35;100640.02;;;9.1;82.0
79118;BME280;68523;51.336;-0.846;2023-04-06T16:54:37;100646.73;;;9.1;82.4
79118;BME280;68523;51.336;-0.846;2023-04-06T17:00:02;100655.38;;;9.2;82.3
79118;BME280;68523;51.336;-0.846;2023-04-06T17:05:06;100665.19;;;9.1;83.5
79118;BME280;68523;51.336;-0.846;2023-04-06T17:10:35;100669.77;;;8.8;86.3
79118;BME280;68523;51.336;-0.846;2023-04-06T17:16:05;100670.00;;;8.9;87.7
79118;BME280;68523;51.336;-0.846;2023-04-06T17:21:34;100669.09;;;8.7;88.7
79118;BME280;68523;51.336;-0.846;2023-04-06T17:26:38;100677.06;;;8.9;88.9
79118;BME280;68523;51.336;-0.846;2023-04-06T17:32:02;100680.33;;;9.7;86.1
79118;BME280;68523;51.336;-0.846;2023-04-06T17:37:05;100683.36;;;10.5;83.1
79118;BME280;68523;51.336;-0.846;2023-04-06T17:42:34;100687.01;;;9.7;83.8
79118;BME280;68523;51.336;-0.846;2023-04-06T17:47:37;100694.40;;;9.3;86.4
79118;BME280;68523;51.336;-0.846;2023-04-06T17:53:01;100697.67;;;9.8;84.5
79118;BME280;68523;51.336;-0.846;2023-04-06T17:58:04;100700.78;;;10.1;85.0
79118;BME280;68523;51.336;-0.846;2023-04-06T18:03:34;100705.94;;;9.2;88.7
79118;BME280;68523;51.336;-0.846;2023-04-06T18:08:37;100700.39;;;8.5;91.6
79118;BME280;68523;51.336;-0.846;2023-04-06T18:14:05;100702.57;;;8.5;92.7
79118;BME280;68523;51.336;-0.846;2023-04-06T18:19:03;100711.41;;;8.3;93.1
79118;BME280;68523;51.336;-0.846;2023-04-06T18:24:06;100717.26;;;8.3;94.1
79118;BME280;68523;51.336;-0.846;2023-04-06T18:29:36;100728.84;;;8.0;95.1
79118;BME280;68523;51.336;-0.846;2023-04-06T18:35:07;100731.93;;;7.9;96.1
79118;BME280;68523;51.336;-0.846;2023-04-06T18:40:38;100737.39;;;7.7;97.0
79118;BME280;68523;51.336;-0.846;2023-04-06T18:46:02;100749.71;;;7.6;97.9
79118;BME280;68523;51.336;-0.846;2023-04-06T18:51:04;100752.57;;;7.7;98.0
79118;BME280;68523;51.336;-0.846;2023-04-06T18:56:34;100757.93;;;7.7;97.9
79118;BME280;68523;51.336;-0.846;2023-04-06T19:01:37;100762.70;;;7.8;98.1
79118;BME280;68523;51.336;-0.846;2023-04-06T19:07:01;100766.68;;;7.8;97.9
79118;BME280;68523;51.336;-0.846;2023-04-06T19:12:04;100776.31;;;7.8;97.8
79118;BME280;68523;51.336;-0.846;2023-04-06T19:17:33;100786.20;;;7.8;98.0
79118;BME280;68523;51.336;-0.846;2023-04-06T19:22:37;100792.45;;;7.7;98.4
79118;BME280;68523;51.336;-0.846;2023-04-06T19:28:01;100789.49;;;7.8;98.1
79118;BME280;68523;51.336;-0.846;2023-04-06T19:33:04;100800.85;;;7.7;98.5
79118;BME280;68523;51.336;-0.846;2023-04-06T19:38:36;100808.52;;;7.8;98.2
79118;BME280;68523;51.336;-0.846;2023-04-06T19:43:34;100817.62;;;7.6;97.5
79118;BME280;68523;51.336;-0.846;2023-04-06T19:48:37;100825.56;;;7.5;96.7
79118;BME280;68523;51.336;-0.846;2023-04-06T19:54:01;100831.74;;;7.4;95.8
79118;BME280;68523;51.336;-0.846;2023-04-06T19:59:04;100836.33;;;7.5;95.1
79118;BME280;68523;51.336;-0.846;2023-04-06T20:04:33;100845.92;;;7.3;94.5
79118;BME280;68523;51.336;-0.846;2023-04-06T20:09:36;100849.99;;;7.3;94.3
79118;BME280;68523;51.336;-0.846;2023-04-06T20:15:06;100851.90;;;7.3;93.8
79118;BME280;68523;51.336;-0.846;2023-04-06T20:20:36;100859.07;;;7.2;93.5
79118;BME280;68523;51.336;-0.846;2023-04-06T20:26:07;100867.65;;;7.3;93.3
79118;BME280;68523;51.336;-0.846;2023-04-06T20:31:37;100881.52;;;7.3;93.2
79118;BME280;68523;51.336;-0.846;2023-04-06T20:37:01;100890.79;;;7.2;92.7
79118;BME280;68523;51.336;-0.846;2023-04-06T20:42:05;100890.85;;;6.8;94.3
79118;BME280;68523;51.336;-0.846;2023-04-06T20:47:34;100892.44;;;6.7;95.0
79118;BME280;68523;51.336;-0.846;2023-04-06T20:52:37;100895.03;;;6.8;94.9
79118;BME280;68523;51.336;-0.846;2023-04-06T20:58:01;100896.96;;;6.7;94.9
79118;BME280;68523;51.336;-0.846;2023-04-06T21:03:04;100901.09;;;6.6;94.5
79118;BME280;68523;51.336;-0.846;2023-04-06T21:08:33;100904.75;;;6.6;94.7
79118;BME280;68523;51.336;-0.846;2023-04-06T21:13:36;100906.33;;;6.4;95.3
79118;BME280;68523;51.336;-0.846;2023-04-06T21:19:05;100906.24;;;6.3;95.9
79118;BME280;68523;51.336;-0.846;2023-04-06T21:24:34;100908.63;;;6.3;96.3
79118;BME280;68523;51.336;-0.846;2023-04-06T21:29:38;100911.56;;;6.1;96.8
79118;BME280;68523;51.336;-0.846;2023-04-06T21:35:02;100912.16;;;6.0;97.3
79118;BME280;68523;51.336;-0.846;2023-04-06T21:40:06;100912.79;;;6.1;96.9
79118;BME280;68523;51.336;-0.846;2023-04-06T21:45:36;100913.15;;;6.0;96.4
79118;BME280;68523;51.336;-0.846;2023-04-06T21:51:05;100914.68;;;6.0;95.9
79118;BME280;68523;51.336;-0.846;2023-04-06T21:56:34;100917.58;;;6.0;95.2
79118;BME280;68523;51.336;-0.846;2023-04-06T22:01:38;100916.84;;;5.9;95.1
79118;BME280;68523;51.336;-0.846;2023-04-06T22:07:02;100915.43;;;5.8;94.7
79118;BME280;68523;51.336;-0.846;2023-04-06T22:12:05;100917.94;;;5.8;94.6
79118;BME280;68523;51.336;-0.846;2023-04-06T22:17:34;100916.58;;;5.9;94.0
79118;BME280;68523;51.336;-0.846;2023-04-06T22:22:37;100917.06;;;5.9;93.5
79118;BME280;68523;51.336;-0.846;2023-04-06T22:28:02;100918.88;;;5.9;92.9
79118;BME280;68523;51.336;-0.846;2023-04-06T22:33:05;100914.94;;;5.9;92.5
79118;BME280;68523;51.336;-0.846;2023-04-06T22:38:34;100917.39;;;5.8;92.6
79118;BME280;68523;51.336;-0.846;2023-04-06T22:43:37;100915.59;;;5.7;92.6
79118;BME280;68523;51.336;-0.846;2023-04-06T22:49:06;100917.45;;;5.7;92.7
79118;BME280;68523;51.336;-0.846;2023-04-06T22:54:35;100920.12;;;5.9;91.9
79118;BME280;68523;51.336;-0.846;2023-04-06T23:00:05;100928.71;;;5.9;91.0
79118;BME280;68523;51.336;-0.846;2023-04-06T23:05:35;100936.03;;;5.9;90.0
79118;BME280;68523;51.336;-0.846;2023-04-06T23:10:38;100938.55;;;5.5;92.1
79118;BME280;68523;51.336;-0.846;2023-04-06T23:16:02;100940.92;;;5.4;93.0
79118;BME280;68523;51.336;-0.846;2023-04-06T23:21:06;100940.07;;;5.3;93.3
79118;BME280;68523;51.336;-0.846;2023-04-06T23:26:36;100949.50;;;5.4;92.4
79118;BME280;68523;51.336;-0.846;2023-04-06T23:32:05;100960.27;;;5.0;93.7
79118;BME280;68523;51.336;-0.846;2023-04-06T23:37:34;100972.28;;;5.0;93.8
79118;BME280;68523;51.336;-0.846;2023-04-06T23:42:37;100973.91;;;5.1;94.0
79118;BME280;68523;51.336;-0.846;2023-04-06T23:48:01;100974.03;;;5.1;94.3
79118;BME280;68523;51.336;-0.846;2023-04-06T23:53:04;100966.84;;;4.9;94.8
79118;BME280;68523;51.336;-0.846;2023-04-06T23:58:33;100968.49;;;4.8;95.4
